Aérodrome :
LOGIN :

S'inscrire | Disclaimer

   EN    FR    IT 

 










Légende :    VFR   VFR Marginal   IFR   IFR Intensif   IFR Très Intensif
Visi : 
Plafond : 
>= 8 km
>= 3000ft
5 à 8 km
1000 à 3000 ft
1500m à 5 km
500 à 1000 ft
800 à 1500m
200 à 500 ft
< 800m
< 200 ft
Symboles :   Orages  Brouillard  Fortes neiges  Fortes précipitations  Vent > 20 kt
SIGMETs :   Divers  Orages  Givrage  Turbulence  Onde Orograph.  Cendres Volcan.






- Altitude de l'aérodrome : 26 ft
- Code IATA : GLA


EGPF - Glasgow

DERNIER METAR :
  • 140850Z AUTO VRB03KT 9999 NCD M01/M03 Q1008

METARs EXPIRÉS :
  • 140820Z AUTO 21004KT 160V260 9999 NCD M01/M04 Q1007
  • 140750Z AUTO 24005KT 210V300 9999 NCD M02/M04 Q1007
  • 140720Z AUTO VRB02KT 9999 NCD M01/M03 Q1006
  • 140650Z AUTO 21006KT 9999 NCD M02/M04 Q1006
  • 140620Z AUTO 33004KT 280V360 9999 NCD 01/M03 Q1005

TAF TAF EGPF
Valide du 14 à 06h jusqu'au 15 à 06h UTC


140503Z 1406/1506 01008KT 9999 FEW035
ATIS : +44 141 887 7449



MET'MAP, la Météo Aéronautique d'un coup d'oeil ! - Copyright ORBIFLY Décembre 2007 - Disclaimer

ORBIFLY MET'MAP TEAM :

Programmation & Développement : Alexandra Zaïnal
Conception & Développement : Baudouin d'Aumeries
Co-Programmation & Développement : Marc-Olivier Méhu
Soutien technique & logistique : Manuel Goepfert

Contact : metmap@orbifly.com




SOURCES & CREDITS :

   NOAA